createdAt,value
2022-10-05T00:01:48.567Z,1.80
2022-10-05T00:06:57.212Z,1.70
2022-10-05T00:09:33.430Z,2.10
2022-10-05T00:12:15.332Z,1.90
2022-10-05T00:14:49.551Z,2.10
2022-10-05T00:17:24.160Z,1.90
2022-10-05T00:19:56.719Z,2.30
2022-10-05T00:25:04.034Z,1.90
2022-10-05T00:27:38.046Z,2.30
2022-10-05T00:30:16.634Z,2.60
2022-10-05T00:32:48.925Z,2.70
2022-10-05T00:35:22.212Z,2.20
2022-10-05T00:37:56.787Z,2.40
2022-10-05T00:40:38.581Z,2.70
2022-10-05T00:43:25.737Z,2.40
2022-10-05T00:46:02.337Z,2.80
2022-10-05T00:48:40.030Z,2.30
2022-10-05T00:51:27.361Z,2.80
2022-10-05T00:54:12.561Z,3.20
2022-10-05T00:57:12.362Z,3.00
2022-10-05T00:59:53.611Z,2.60
2022-10-05T01:02:31.930Z,2.40
2022-10-05T01:05:13.593Z,2.90
2022-10-05T01:07:51.551Z,3.50
2022-10-05T01:10:28.857Z,3.00
2022-10-05T01:13:06.946Z,3.00
2022-10-05T01:15:43.904Z,3.10
2022-10-05T01:18:22.506Z,3.60
2022-10-05T01:21:01.295Z,3.70
2022-10-05T01:24:04.212Z,2.90
2022-10-05T01:26:49.618Z,3.10
2022-10-05T01:29:25.756Z,2.80
2022-10-05T01:32:04.240Z,3.20
2022-10-05T01:34:39.665Z,3.60
2022-10-05T01:37:16.719Z,3.20
2022-10-05T01:39:57.285Z,4.00
2022-10-05T01:42:36.915Z,4.10
2022-10-05T01:45:12.503Z,4.00
2022-10-05T01:47:48.180Z,3.90
2022-10-05T01:50:27.369Z,3.70
2022-10-05T01:53:04.865Z,4.00
2022-10-05T01:55:42.714Z,7.00
2022-10-05T01:58:21.291Z,4.20
2022-10-05T02:01:00.419Z,4.60
2022-10-05T02:03:37.345Z,4.20
2022-10-05T02:06:13.591Z,5.00
2022-10-05T02:08:48.105Z,5.60
2022-10-05T02:11:21.331Z,5.50
2022-10-05T02:13:57.144Z,5.30
2022-10-05T02:16:33.077Z,5.60
2022-10-05T02:19:06.804Z,5.30
2022-10-05T02:21:39.523Z,5.60
2022-10-05T02:24:13.357Z,5.20
2022-10-05T02:26:45.743Z,5.80
2022-10-05T02:31:52.403Z,5.50
2022-10-05T02:34:29.801Z,5.90
2022-10-05T02:37:13.417Z,5.60
2022-10-05T02:39:53.672Z,5.80
2022-10-05T02:42:31.869Z,6.20
2022-10-05T02:45:11.728Z,6.40
2022-10-05T02:47:48.746Z,6.00
2022-10-05T02:50:27.377Z,6.00
2022-10-05T02:53:08.494Z,5.80
2022-10-05T02:55:45.812Z,6.40
2022-10-05T02:58:20.733Z,6.00
2022-10-05T03:00:57.101Z,5.90
2022-10-05T03:03:33.758Z,5.30
2022-10-05T03:06:10.264Z,5.80
2022-10-05T03:08:45.725Z,6.00
2022-10-05T03:11:26.911Z,6.10
2022-10-05T03:14:05.596Z,6.00
2022-10-05T03:16:47.873Z,6.20
2022-10-05T03:19:37.127Z,6.40
2022-10-05T03:22:15.692Z,6.20
2022-10-05T03:25:07.057Z,6.30
2022-10-05T03:27:45.785Z,6.20
2022-10-05T03:30:19.853Z,6.50
2022-10-05T03:32:59.968Z,5.80
2022-10-05T03:35:36.978Z,5.40
2022-10-05T03:38:13.368Z,6.00
2022-10-05T03:40:52.102Z,6.30
2022-10-05T03:43:41.456Z,6.70
2022-10-05T03:46:18.516Z,6.60
2022-10-05T03:48:56.868Z,5.70
2022-10-05T03:51:36.579Z,6.60
2022-10-05T03:54:13.401Z,5.90
2022-10-05T03:56:49.129Z,6.50
2022-10-05T03:59:25.232Z,6.30
2022-10-05T04:02:01.747Z,7.20
2022-10-05T04:04:38.928Z,6.40
2022-10-05T04:07:16.845Z,6.20
2022-10-05T04:09:50.824Z,6.30
2022-10-05T04:12:26.836Z,7.00
2022-10-05T04:15:02.076Z,6.20
2022-10-05T04:17:36.341Z,6.80
2022-10-05T04:20:16.356Z,5.90
2022-10-05T04:22:54.784Z,6.50
2022-10-05T04:25:30.060Z,6.60
2022-10-05T04:28:06.697Z,6.20
2022-10-05T04:30:42.057Z,6.20
2022-10-05T04:33:16.171Z,6.60
2022-10-05T04:36:11.011Z,6.10
2022-10-05T04:38:50.735Z,6.70
2022-10-05T04:41:35.123Z,6.20
2022-10-05T04:44:27.945Z,5.30
2022-10-05T04:47:36.046Z,5.90
2022-10-05T04:50:22.084Z,5.80
2022-10-05T04:53:05.597Z,5.70
2022-10-05T04:55:41.652Z,5.90
2022-10-05T04:58:22.131Z,6.10
2022-10-05T05:01:07.047Z,6.30
2022-10-05T05:03:53.051Z,5.90
2022-10-05T05:06:36.033Z,5.40
2022-10-05T05:10:24.487Z,6.00
2022-10-05T05:13:02.656Z,5.50
2022-10-05T05:15:43.493Z,5.90
2022-10-05T05:18:35.135Z,6.30
2022-10-05T05:21:21.455Z,5.90
2022-10-05T05:24:07.532Z,6.00
2022-10-05T05:26:56.084Z,5.80
2022-10-05T05:29:43.194Z,5.70
2022-10-05T05:34:26.553Z,6.00
2022-10-05T05:37:07.849Z,5.90
2022-10-05T05:39:47.189Z,6.20
2022-10-05T05:42:29.702Z,5.80
2022-10-05T05:45:07.842Z,6.70
2022-10-05T05:47:43.874Z,6.30
2022-10-05T05:50:32.718Z,6.00
2022-10-05T05:53:11.225Z,6.10
2022-10-05T05:55:46.368Z,5.30
2022-10-05T05:58:23.553Z,5.20
2022-10-05T06:01:01.494Z,5.30
2022-10-05T06:03:39.335Z,4.40
2022-10-05T06:06:13.208Z,5.60
2022-10-05T06:08:52.953Z,6.40
2022-10-05T06:11:28.121Z,6.60
2022-10-05T06:14:03.234Z,6.20
2022-10-05T06:16:38.744Z,6.90
2022-10-05T06:19:15.016Z,6.70
2022-10-05T06:21:49.661Z,6.30
2022-10-05T06:24:26.349Z,6.30
2022-10-05T06:27:22.880Z,6.80
2022-10-05T06:30:06.398Z,6.70
2022-10-05T06:32:52.234Z,8.10
2022-10-05T06:35:33.555Z,6.90
2022-10-05T06:38:16.925Z,7.20
2022-10-05T06:41:03.973Z,6.40
2022-10-05T06:43:47.737Z,7.20
2022-10-05T06:46:25.045Z,6.40
2022-10-05T06:49:13.589Z,5.90
2022-10-05T06:51:51.989Z,6.30
2022-10-05T06:54:43.980Z,5.90
2022-10-05T06:57:30.224Z,5.80
2022-10-05T07:00:06.090Z,5.60
2022-10-05T07:02:45.279Z,5.60
2022-10-05T07:05:47.497Z,4.70
2022-10-05T07:08:25.146Z,4.80
2022-10-05T07:11:08.400Z,4.30
2022-10-05T07:14:00.488Z,4.20
2022-10-05T07:16:42.616Z,4.70
2022-10-05T07:19:23.705Z,4.20
2022-10-05T07:22:10.730Z,3.40
2022-10-05T07:24:46.644Z,3.80
2022-10-05T07:27:21.320Z,3.10
2022-10-05T07:29:59.129Z,2.70
2022-10-05T07:32:36.736Z,2.90
2022-10-05T07:35:33.540Z,2.70
2022-10-05T07:38:08.581Z,2.00
2022-10-05T07:40:43.016Z,1.90
2022-10-05T07:43:23.125Z,1.90
2022-10-05T07:45:59.361Z,1.80
2022-10-05T07:48:39.555Z,1.70
2022-10-05T07:51:17.248Z,1.70
2022-10-05T07:54:08.177Z,1.90
2022-10-05T07:56:43.497Z,1.40
2022-10-05T07:59:21.216Z,1.30
2022-10-05T08:02:00.248Z,1.50
2022-10-05T08:04:41.782Z,1.40
2022-10-05T08:07:16.667Z,1.20
2022-10-05T08:09:54.755Z,1.60
2022-10-05T08:12:34.542Z,1.30
2022-10-05T08:15:11.292Z,1.80
2022-10-05T08:17:49.952Z,1.40
2022-10-05T08:20:40.152Z,1.80
2022-10-05T08:23:21.282Z,1.40
2022-10-05T08:26:01.515Z,1.90
2022-10-05T08:28:38.402Z,1.30
2022-10-05T08:31:18.404Z,1.40
2022-10-05T08:33:58.734Z,1.30
2022-10-05T08:36:44.922Z,1.20
2022-10-05T08:39:19.580Z,1.30
2022-10-05T08:42:06.979Z,1.40
2022-10-05T08:45:24.587Z,1.50
2022-10-05T08:48:30.119Z,1.40
2022-10-05T08:51:30.465Z,1.50
2022-10-05T08:54:21.920Z,1.40
2022-10-05T08:57:05.085Z,1.40
2022-10-05T08:59:57.546Z,1.20
2022-10-05T09:02:38.763Z,1.40
2022-10-05T09:05:28.900Z,1.20
2022-10-05T09:08:27.192Z,1.40
2022-10-05T09:11:14.751Z,1.20
2022-10-05T09:14:11.650Z,1.40
2022-10-05T09:17:00.003Z,1.50
2022-10-05T09:19:55.413Z,1.40
2022-10-05T09:22:51.441Z,1.10
2022-10-05T09:25:27.734Z,1.10
2022-10-05T09:28:05.151Z,1.10
2022-10-05T09:30:49.865Z,1.20
2022-10-05T09:33:53.250Z,1.40
2022-10-05T09:36:55.609Z,1.60
2022-10-05T09:39:48.328Z,1.30
2022-10-05T09:42:58.800Z,1.10
2022-10-05T09:45:53.426Z,0.90
2022-10-05T09:48:55.401Z,1.30
2022-10-05T09:52:06.359Z,1.10
2022-10-05T09:55:09.074Z,1.00
2022-10-05T09:58:20.637Z,1.10
2022-10-05T10:01:09.827Z,0.80
2022-10-05T10:04:07.280Z,1.60
2022-10-05T10:07:13.446Z,1.20
2022-10-05T10:09:57.867Z,0.80
2022-10-05T10:12:38.538Z,0.80
2022-10-05T10:15:35.921Z,1.30
2022-10-05T10:18:32.868Z,1.00
2022-10-05T10:21:15.604Z,1.20
2022-10-05T10:24:00.482Z,1.00
2022-10-05T10:26:58.422Z,1.20
2022-10-05T10:29:53.783Z,0.90
2022-10-05T10:33:11.916Z,1.30
2022-10-05T10:35:49.511Z,1.50
2022-10-05T10:38:36.679Z,1.00
2022-10-05T10:41:29.334Z,1.20
2022-10-05T10:46:57.681Z,1.20
2022-10-05T10:49:41.331Z,1.10
2022-10-05T10:52:31.462Z,1.10
2022-10-05T10:55:19.735Z,1.20
2022-10-05T10:58:16.507Z,1.00
2022-10-05T11:00:54.983Z,1.10
2022-10-05T11:03:57.337Z,1.10
2022-10-05T11:06:54.285Z,1.00
2022-10-05T11:09:52.177Z,1.20
2022-10-05T11:12:51.181Z,0.70
2022-10-05T11:15:51.887Z,1.00
2022-10-05T11:18:25.881Z,1.20
2022-10-05T11:21:22.056Z,1.40
2022-10-05T11:24:32.743Z,1.40
2022-10-05T11:27:31.341Z,0.90
2022-10-05T11:30:39.298Z,1.40
2022-10-05T11:33:43.083Z,1.20
2022-10-05T11:36:49.325Z,1.30
2022-10-05T11:39:37.276Z,1.10
2022-10-05T11:42:54.905Z,1.40
2022-10-05T11:45:28.937Z,1.70
2022-10-05T11:48:17.238Z,1.20
2022-10-05T11:50:59.952Z,1.00
2022-10-05T11:53:34.847Z,1.60
2022-10-05T11:56:14.817Z,1.40
2022-10-05T11:58:51.391Z,1.50
2022-10-05T12:01:28.845Z,1.50
2022-10-05T12:04:09.530Z,1.10
2022-10-05T12:06:52.585Z,1.50
2022-10-05T12:09:38.893Z,1.70
2022-10-05T12:12:18.008Z,1.50
2022-10-05T12:14:57.775Z,1.50
2022-10-05T12:17:37.074Z,1.40
2022-10-05T12:20:15.897Z,1.40
2022-10-05T12:22:52.216Z,1.30
2022-10-05T12:25:28.794Z,1.50
2022-10-05T12:28:05.126Z,1.60
2022-10-05T12:31:07.743Z,1.20
2022-10-05T12:33:44.205Z,1.40
2022-10-05T12:36:19.310Z,1.50
2022-10-05T12:38:56.664Z,1.60
2022-10-05T12:41:33.381Z,1.30
2022-10-05T12:44:13.028Z,1.60
2022-10-05T12:46:52.712Z,1.60
2022-10-05T12:49:33.387Z,1.40
2022-10-05T12:52:08.308Z,1.30
2022-10-05T12:54:47.228Z,1.30
2022-10-05T12:57:24.319Z,2.00
2022-10-05T13:00:00.389Z,1.40
2022-10-05T13:02:42.461Z,1.70
2022-10-05T13:05:27.001Z,1.50
2022-10-05T13:08:21.748Z,1.80
2022-10-05T13:11:01.709Z,1.70
2022-10-05T13:13:44.348Z,1.40
2022-10-05T13:16:27.435Z,1.50
2022-10-05T13:19:10.025Z,1.30
2022-10-05T13:21:55.215Z,1.40
2022-10-05T13:24:30.871Z,1.70
2022-10-05T13:27:08.639Z,1.30
2022-10-05T13:29:43.746Z,1.60
2022-10-05T13:32:20.804Z,1.50
2022-10-05T13:34:58.992Z,1.40
2022-10-05T13:37:40.314Z,1.40
2022-10-05T13:40:21.823Z,1.40
2022-10-05T13:42:58.051Z,1.30
2022-10-05T13:45:33.701Z,1.20
2022-10-05T13:48:16.901Z,1.40
2022-10-05T13:51:02.147Z,1.60
2022-10-05T13:53:41.256Z,1.50
2022-10-05T13:56:21.010Z,1.30
2022-10-05T13:58:56.195Z,2.20
2022-10-05T14:01:35.850Z,1.60
2022-10-05T14:04:11.503Z,1.30
2022-10-05T14:06:43.655Z,1.50
2022-10-05T14:09:30.737Z,1.40
2022-10-05T14:12:22.709Z,1.50
2022-10-05T14:14:56.489Z,1.90
2022-10-05T14:17:42.180Z,1.20
2022-10-05T14:20:25.233Z,1.50
2022-10-05T14:23:01.936Z,1.50
2022-10-05T14:25:34.853Z,1.30
2022-10-05T14:28:25.832Z,1.60
2022-10-05T14:31:02.959Z,1.60
2022-10-05T14:33:36.416Z,1.40
2022-10-05T14:36:12.456Z,1.60
2022-10-05T14:39:00.775Z,1.40
2022-10-05T14:41:37.676Z,1.90
2022-10-05T14:44:30.427Z,1.50
2022-10-05T14:49:37.546Z,1.20
2022-10-05T14:52:32.979Z,1.50
2022-10-05T14:55:17.812Z,1.30
2022-10-05T14:58:08.783Z,1.20
2022-10-05T15:00:48.929Z,2.00
2022-10-05T15:03:33.332Z,1.40
2022-10-05T15:06:07.085Z,1.40
2022-10-05T15:08:54.196Z,1.50
2022-10-05T15:11:37.592Z,1.30
2022-10-05T15:14:16.471Z,1.40
2022-10-05T15:16:49.380Z,1.20
2022-10-05T15:19:26.033Z,1.40
2022-10-05T15:22:11.581Z,1.50
2022-10-05T15:24:47.329Z,1.60
2022-10-05T15:27:26.372Z,1.80
2022-10-05T15:30:07.835Z,1.70
2022-10-05T15:32:47.657Z,1.50
2022-10-05T15:36:02.484Z,2.20
2022-10-05T15:38:39.644Z,1.60
2022-10-05T15:41:16.183Z,1.60
2022-10-05T15:44:06.622Z,1.60
2022-10-05T15:46:46.207Z,1.80
2022-10-05T15:49:25.913Z,2.30
2022-10-05T15:52:04.446Z,2.30
2022-10-05T15:57:45.548Z,2.50
2022-10-05T16:00:20.050Z,2.00
2022-10-05T16:02:58.325Z,1.40
2022-10-05T16:05:58.316Z,1.80
2022-10-05T16:08:54.360Z,1.70
2022-10-05T16:11:37.041Z,2.00
2022-10-05T16:16:50.037Z,2.00
2022-10-05T16:19:26.502Z,2.20
2022-10-05T16:22:05.151Z,2.80
2022-10-05T16:25:09.209Z,2.80
2022-10-05T16:27:52.715Z,3.00
2022-10-05T16:30:26.546Z,2.60
2022-10-05T16:33:04.716Z,2.90
2022-10-05T16:35:44.452Z,3.20
2022-10-05T16:38:26.011Z,3.90
2022-10-05T16:41:03.832Z,3.80
2022-10-05T16:43:46.049Z,3.60
2022-10-05T16:46:27.926Z,3.50
2022-10-05T16:49:07.466Z,3.50
2022-10-05T16:51:47.008Z,3.40
2022-10-05T16:54:21.670Z,4.00
2022-10-05T16:56:59.826Z,4.50
2022-10-05T17:00:08.910Z,3.90
2022-10-05T17:03:02.151Z,4.50
2022-10-05T17:05:55.783Z,4.30
2022-10-05T17:08:40.911Z,4.60
2022-10-05T17:11:23.597Z,6.70
2022-10-05T17:16:36.156Z,5.60
2022-10-05T17:19:29.164Z,6.80
2022-10-05T17:22:03.468Z,7.70
2022-10-05T17:24:50.963Z,7.10
2022-10-05T17:27:36.075Z,7.80
2022-10-05T17:30:47.489Z,9.00
2022-10-05T17:33:25.301Z,7.70
2022-10-05T17:39:14.545Z,8.10
2022-10-05T17:41:46.923Z,7.80
2022-10-05T17:44:29.364Z,7.80
2022-10-05T17:47:04.200Z,7.40
2022-10-05T17:50:16.802Z,7.40
2022-10-05T17:53:39.638Z,7.10
2022-10-05T17:56:11.839Z,6.90
2022-10-05T17:59:03.966Z,6.90
2022-10-05T18:01:38.182Z,6.00
2022-10-05T18:04:42.594Z,6.00
2022-10-05T18:07:27.808Z,5.80
2022-10-05T18:10:29.135Z,5.90
2022-10-05T18:13:33.007Z,5.90
2022-10-05T18:16:05.280Z,5.20
2022-10-05T18:18:57.398Z,5.60
2022-10-05T18:21:41.615Z,5.70
2022-10-05T18:24:39.081Z,5.00
2022-10-05T18:27:30.556Z,5.20
2022-10-05T18:30:08.922Z,6.00
2022-10-05T18:33:14.124Z,5.20
2022-10-05T18:35:53.975Z,5.60
2022-10-05T18:38:39.060Z,4.90
2022-10-05T18:41:20.208Z,5.90
2022-10-05T18:44:00.097Z,5.70
2022-10-05T18:46:39.218Z,6.10
2022-10-05T18:49:26.213Z,5.50
2022-10-05T18:52:03.929Z,5.80
2022-10-05T18:54:48.306Z,4.60
2022-10-05T18:57:40.560Z,5.10
2022-10-05T19:00:18.811Z,4.70
2022-10-05T19:02:53.795Z,5.00
2022-10-05T19:05:48.653Z,5.00
2022-10-05T19:08:27.763Z,5.10
2022-10-05T19:11:06.297Z,4.70
2022-10-05T19:13:44.918Z,4.90
2022-10-05T19:16:26.257Z,5.10
2022-10-05T19:19:12.920Z,4.10
2022-10-05T19:21:50.970Z,4.00
2022-10-05T19:24:53.110Z,4.00
2022-10-05T19:27:33.995Z,3.50
2022-10-05T19:30:19.373Z,3.70
2022-10-05T19:33:05.714Z,4.10
2022-10-05T19:35:45.109Z,4.00
2022-10-05T19:38:25.961Z,4.60
2022-10-05T19:41:05.576Z,4.40
2022-10-05T19:43:53.745Z,3.70
2022-10-05T19:46:34.909Z,3.70
2022-10-05T19:49:09.174Z,3.50
2022-10-05T19:51:51.729Z,3.70
2022-10-05T19:54:29.958Z,3.70
2022-10-05T19:57:03.033Z,3.40
2022-10-05T19:59:35.665Z,3.40
2022-10-05T20:02:07.875Z,3.30
2022-10-05T20:04:41.262Z,3.60
2022-10-05T20:07:17.439Z,3.60
2022-10-05T20:09:55.210Z,3.70
2022-10-05T20:12:50.948Z,3.30
2022-10-05T20:15:42.841Z,4.00
2022-10-05T20:18:57.021Z,3.40
2022-10-05T20:22:00.040Z,3.10
2022-10-05T20:24:33.426Z,3.50
2022-10-05T20:27:06.292Z,3.80
2022-10-05T20:29:40.558Z,4.30
2022-10-05T20:32:14.159Z,3.60
2022-10-05T20:34:49.367Z,4.00
2022-10-05T20:37:21.861Z,4.20
2022-10-05T20:39:54.139Z,3.60
2022-10-05T20:42:26.831Z,3.60
2022-10-05T20:44:59.077Z,3.80
2022-10-05T20:47:31.218Z,3.30
2022-10-05T20:50:05.185Z,3.10
2022-10-05T20:52:38.438Z,3.40
2022-10-05T20:55:12.664Z,3.30
2022-10-05T20:57:46.307Z,3.40
2022-10-05T21:00:18.787Z,3.60
2022-10-05T21:02:50.935Z,3.30
2022-10-05T21:05:23.090Z,3.50
2022-10-05T21:07:55.324Z,3.20
2022-10-05T21:10:27.413Z,3.30
2022-10-05T21:13:03.065Z,3.20
2022-10-05T21:15:35.148Z,3.10
2022-10-05T21:18:07.420Z,2.90
2022-10-05T21:20:39.509Z,3.30
2022-10-05T21:23:12.335Z,3.60
2022-10-05T21:25:44.472Z,3.30
2022-10-05T21:28:16.944Z,3.70
2022-10-05T21:30:49.160Z,3.50
2022-10-05T21:33:21.622Z,3.60
2022-10-05T21:35:53.735Z,4.00
2022-10-05T21:38:26.336Z,4.00
2022-10-05T21:40:58.848Z,4.20
2022-10-05T21:43:31.184Z,3.80
2022-10-05T21:48:36.397Z,3.80
2022-10-05T21:51:10.843Z,4.10
2022-10-05T21:53:45.795Z,4.60
2022-10-05T21:56:20.188Z,4.80
2022-10-05T21:58:53.196Z,4.30
2022-10-05T22:01:25.339Z,4.20
2022-10-05T22:03:58.032Z,3.70
2022-10-05T22:09:00.821Z,3.60
2022-10-05T22:11:32.960Z,4.40
2022-10-05T22:14:05.221Z,3.70
2022-10-05T22:16:40.295Z,3.70
2022-10-05T22:19:17.179Z,4.10
2022-10-05T22:21:49.304Z,3.70
2022-10-05T22:24:21.399Z,4.40
2022-10-05T22:26:53.733Z,4.20
2022-10-05T22:29:25.831Z,3.40
2022-10-05T22:31:59.378Z,4.10
2022-10-05T22:34:31.672Z,3.80
2022-10-05T22:37:04.254Z,3.50
2022-10-05T22:42:07.047Z,4.00
2022-10-05T22:44:40.371Z,4.70
2022-10-05T22:47:12.463Z,5.00
2022-10-05T22:49:44.657Z,5.00
2022-10-05T22:52:16.758Z,5.00
2022-10-05T22:54:48.884Z,5.00
2022-10-05T22:57:21.270Z,5.30
2022-10-05T23:02:23.984Z,5.60
2022-10-05T23:04:56.159Z,5.00
2022-10-05T23:07:28.306Z,5.20
2022-10-05T23:10:00.456Z,5.30
2022-10-05T23:12:32.681Z,6.00
2022-10-05T23:15:05.495Z,5.60
2022-10-05T23:17:39.452Z,4.80
2022-10-05T23:20:12.585Z,4.60
2022-10-05T23:22:44.678Z,5.00
2022-10-05T23:25:17.963Z,5.00
2022-10-05T23:27:50.164Z,5.20
2022-10-05T23:30:22.434Z,5.70
2022-10-05T23:32:54.766Z,6.10
2022-10-05T23:35:26.842Z,5.70
2022-10-05T23:37:59.002Z,6.10
2022-10-05T23:40:31.098Z,6.20
2022-10-05T23:43:03.170Z,6.20
2022-10-05T23:45:35.338Z,5.90
2022-10-05T23:48:07.424Z,5.30
2022-10-05T23:50:40.276Z,5.60
2022-10-05T23:53:12.390Z,5.50
2022-10-05T23:55:44.780Z,6.00
2022-10-05T23:58:17.154Z,6.40
